Caraibes II F/v — FJXR — position and weather

sailwx.info

Track history (hours):
 
Tides and Currents Weather Stations Pressure Air Temp Water Temp Dewpoint Dewpoint Depression Visibility Wind Speed Wind Dir Waves Ship Positions

Caraibes II F/v

Last reported at 2017-Sep-26 05:16 UTC. Time now 2017-Sep-26 09:29 UTC.
Position N 47°54' W 005°08'.

Length 15 m.

Type: Fishing. MMSI: 228087900.

Date/timePositionNaut miles runAvg speedWind from/ knotsBaromVisibWave heightAir tempDewpointWater temp
2017-Sep-26 05:16N 47°54' W 005°08'2 8.4
2017-Sep-26 05:00N 47°53' W 005°05'4 8.7
2017-Sep-26 04:30N 47°53' W 004°59'4 9.0
2017-Sep-26 04:00N 47°52' W 004°52'5 8.7
2017-Sep-26 03:25N 47°51' W 004°45'4 8.6
2017-Sep-26 03:00N 47°51' W 004°39'4 8.3
2017-Sep-26 02:30N 47°50' W 004°33'5 8.4
2017-Sep-26 01:53N 47°49' W 004°26'2 1.5
2017-Sep-26 00:39N 47°49' W 004°23'0 0.0
2017-Sep-26 00:30N 47°49' W 004°23'0 0.0
2017-Sep-25 23:58N 47°49' W 004°23'0 0.0
2017-Sep-25 23:08N 47°49' W 004°23'0 0.0
2017-Sep-25 22:59N 47°49' W 004°23'0 0.0
2017-Sep-25 22:26N 47°49' W 004°23'0 0.0
2017-Sep-25 21:48N 47°49' W 004°23'0 0.0
2017-Sep-25 21:30N 47°49' W 004°23'0 0.0
2017-Sep-25 20:59N 47°49' W 004°23'0 0.0
2017-Sep-25 20:30N 47°49' W 004°23'0 0.0
2017-Sep-25 19:55N 47°49' W 004°23'0 0.0
2017-Sep-25 19:27N 47°49' W 004°23'0 0.0
2017-Sep-25 19:00N 47°49' W 004°23'0 0.0
2017-Sep-25 18:26N 47°49' W 004°23'0 0.0
2017-Sep-25 16:48N 47°49' W 004°23'0 0.0
2017-Sep-25 15:48N 47°49' W 004°23'0 0.0
2017-Sep-25 13:48N 47°49' W 004°23'0 0.1
2017-Sep-25 11:48N 47°49' W 004°23'13 8.2
2017-Sep-25 10:12N 47°52' W 004°42'2 8.6
2017-Sep-25 09:59N 47°53' W 004°45'4 8.5
2017-Sep-25 09:30N 47°54' W 004°50'4 8.6
2017-Sep-25 09:00N 47°55' W 004°56'5 9.2
2017-Sep-25 08:29N 47°57' W 005°03'  
2017-Sep-22 01:57N 47°48' W 004°23'0 0.2
2017-Sep-22 00:00N 47°49' W 004°23'0 0.0
2017-Sep-21 21:48N 47°49' W 004°23'0 0.0
2017-Sep-21 19:48N 47°49' W 004°23'0 0.0
2017-Sep-21 16:48N 47°49' W 004°23'0 0.0
2017-Sep-21 14:48N 47°49' W 004°23'10 2.4
2017-Sep-21 10:48N 47°53' W 004°36'1 0.6
2017-Sep-21 09:01N 47°54' W 004°36'0 3.3
2017-Sep-21 08:54N 47°54' W 004°37'1 3.4
2017-Sep-21 08:28N 47°55' W 004°38'1 2.9
2017-Sep-21 07:58N 47°56' W 004°37'2 3.4
2017-Sep-21 07:27N 47°57' W 004°35'1 3.2
2017-Sep-21 06:58N 47°56' W 004°36'1 2.6
2017-Sep-21 06:29N 47°56' W 004°38'1 2.9
2017-Sep-21 06:00N 47°57' W 004°37'2 2.7
2017-Sep-21 05:13N 47°55' W 004°38'1 3.3
2017-Sep-21 04:58N 47°56' W 004°39'2 3.2
2017-Sep-21 04:26N 47°57' W 004°38'1 2.6
2017-Sep-21 04:00N 47°57' W 004°36'2 2.8
2017-Sep-21 03:28N 47°56' W 004°37'1 2.7
2017-Sep-21 03:00N 47°56' W 004°39'2 2.6
2017-Sep-21 02:25N 47°57' W 004°37'1 2.4
2017-Sep-21 02:00N 47°57' W 004°37'2 3.6
2017-Sep-21 01:30N 47°55' W 004°37'1 3.0
2017-Sep-21 01:00N 47°53' W 004°37'2 2.1
2017-Sep-20 23:51N 47°55' W 004°40'1 2.7
2017-Sep-20 23:25N 47°56' W 004°39'1 2.8
2017-Sep-20 23:00N 47°57' W 004°39'1 2.6
2017-Sep-20 22:30N 47°58' W 004°40'3 6.3
2017-Sep-20 22:00N 48°00' W 004°43'3 6.2
2017-Sep-20 21:30N 48°02' W 004°47'4 7.5
2017-Sep-20 21:00N 48°04' W 004°52'4 7.1
2017-Sep-20 20:30N 48°06' W 004°56'3 7.0
2017-Sep-20 20:00N 48°07' W 005°01'13 0.9
2017-Sep-20 04:52N 48°19' W 005°10'0 0.4
2017-Sep-20 04:05N 48°19' W 005°09'0 3.3
2017-Sep-20 03:59N 48°19' W 005°09'0 0.2
2017-Sep-20 03:29N 48°19' W 005°09'1 2.7
2017-Sep-20 03:00N 48°19' W 005°11'2 3.1
2017-Sep-20 02:27N 48°19' W 005°08'1 1.6
2017-Sep-20 01:48N 48°19' W 005°10'1 1.8
2017-Sep-20 01:28N 48°19' W 005°11'2 3.3
2017-Sep-20 00:54N 48°19' W 005°08'1 2.4
2017-Sep-20 00:28N 48°19' W 005°09'1 1.6
2017-Sep-19 23:52N 48°18' W 005°10'1 2.6
2017-Sep-19 23:21N 48°19' W 005°08'1 2.5
2017-Sep-19 23:00N 48°19' W 005°07'1 2.7
2017-Sep-19 22:28N 48°18' W 005°05'1 2.4
2017-Sep-19 22:00N 48°17' W 005°06'2 3.2
2017-Sep-19 21:30N 48°17' W 005°08'1 2.2
2017-Sep-19 21:00N 48°17' W 005°06'2 3.1
2017-Sep-19 20:29N 48°18' W 005°04'1 2.6
2017-Sep-19 20:00N 48°17' W 005°06'3 0.3
2017-Sep-19 10:45N 48°19' W 005°09'0 0.4
2017-Sep-19 10:11N 48°19' W 005°10'1 2.9
2017-Sep-19 09:58N 48°19' W 005°09'0 0.2
2017-Sep-19 09:29N 48°19' W 005°09'1 1.1
2017-Sep-19 09:00N 48°19' W 005°10'3 1.5
2017-Sep-19 06:50N 48°22' W 005°10'1 1.1
2017-Sep-19 05:48N 48°23' W 005°12'2 2.3
2017-Sep-19 04:58N 48°21' W 005°10'2 4.4
2017-Sep-19 04:30N 48°19' W 005°08'1 2.4
2017-Sep-19 03:58N 48°19' W 005°07'1 3.3
2017-Sep-19 03:30N 48°18' W 005°04'1 2.6
2017-Sep-19 03:00N 48°17' W 005°06'1 1.5
2017-Sep-19 02:29N 48°18' W 005°07'2 3.2
2017-Sep-19 02:00N 48°17' W 005°05'1 2.0
2017-Sep-19 01:30N 48°18' W 005°05'2 2.8
2017-Sep-19 00:57N 48°19' W 005°07'1 3.1
2017-Sep-19 00:30N 48°19' W 005°09'1 1.4
2017-Sep-18 23:50N 48°19' W 005°10'1 3.4
2017-Sep-18 23:30N 48°19' W 005°09'0 0.1
2017-Sep-18 23:00N 48°19' W 005°09'0 0.4
2017-Sep-18 22:16N 48°19' W 005°09'1 3.3
2017-Sep-18 22:00N 48°19' W 005°08'0 0.3
2017-Sep-18 20:44N 48°19' W 005°08'0 1.4
2017-Sep-18 20:30N 48°19' W 005°08'1 1.4
2017-Sep-18 19:48N 48°19' W 005°10'1 3.3
2017-Sep-18 19:30N 48°19' W 005°08'1 1.5
2017-Sep-18 19:00N 48°18' W 005°08'3 2.6
2017-Sep-18 17:48N 48°17' W 005°12'4 0.9
2017-Sep-18 13:48N 48°14' W 005°16'3 2.5
2017-Sep-18 12:31N 48°16' W 005°12'1 4.4
2017-Sep-18 12:24N 48°16' W 005°12'2 4.3
2017-Sep-18 11:53N 48°14' W 005°12'2 2.8
2017-Sep-18 11:19N 48°13' W 005°10'1 3.1
2017-Sep-18 10:59N 48°13' W 005°09'3 5.8
2017-Sep-18 10:29N 48°13' W 005°04'1 3.1
2017-Sep-18 10:00N 48°12' W 005°04'2 3.4
2017-Sep-18 09:30N 48°11' W 005°01'2 3.3
2017-Sep-18 09:01N 48°12' W 004°59'2 0.8
2017-Sep-18 06:50N 48°10' W 005°01'1 3.0
2017-Sep-18 06:30N 48°09' W 005°01'1 2.5
2017-Sep-18 06:00N 48°08' W 004°59'4 8.7
2017-Sep-18 05:30N 48°06' W 004°53'4 8.4
2017-Sep-18 05:00N 48°04' W 004°49'3 6.8
2017-Sep-18 04:30N 48°02' W 004°45'4 8.2
2017-Sep-18 04:00N 47°59' W 004°39'4 7.9
2017-Sep-18 03:30N 47°57' W 004°35'6 8.2
2017-Sep-18 02:48N 47°52' W 004°30'13 4.4
2017-Sep-17 23:48N 47°50' W 004°10'0 0.0
2017-Sep-17 22:48N 47°50' W 004°10'0 0.0
2017-Sep-17 13:48N 47°50' W 004°10'0 0.0
2017-Sep-17 07:48N 47°50' W 004°10'0 0.0
2017-Sep-17 03:48N 47°50' W 004°10'0 0.0
2017-Sep-17 00:48N 47°50' W 004°10'0 0.0
2017-Sep-16 22:48N 47°50' W 004°10'0 0.0
2017-Sep-16 07:48N 47°50' W 004°10'  
Track history (hours):
 
Tides and Currents Weather Stations Pressure Air Temp Water Temp Dewpoint Dewpoint Depression Visibility Wind Speed Wind Dir Waves Ship Positions

Caraibes II F/v

Last reported at 2017-Sep-26 05:16 UTC. Time now 2017-Sep-26 09:29 UTC.
Position N 47°54' W 005°08'.

Length 15 m.

Type: Fishing. MMSI: 228087900.

Date/timePositionNaut miles runAvg speedWind from/ knotsBaromVisibWave heightAir tempDewpointWater temp
2017-Sep-26 05:16N 47°54' W 005°08'2 8.4
2017-Sep-26 05:00N 47°53' W 005°05'4 8.7
2017-Sep-26 04:30N 47°53' W 004°59'4 9.0
2017-Sep-26 04:00N 47°52' W 004°52'5 8.7
2017-Sep-26 03:25N 47°51' W 004°45'4 8.6
2017-Sep-26 03:00N 47°51' W 004°39'4 8.3
2017-Sep-26 02:30N 47°50' W 004°33'5 8.4
2017-Sep-26 01:53N 47°49' W 004°26'2 1.5
2017-Sep-26 00:39N 47°49' W 004°23'0 0.0
2017-Sep-26 00:30N 47°49' W 004°23'0 0.0
2017-Sep-25 23:58N 47°49' W 004°23'0 0.0
2017-Sep-25 23:08N 47°49' W 004°23'0 0.0
2017-Sep-25 22:59N 47°49' W 004°23'0 0.0
2017-Sep-25 22:26N 47°49' W 004°23'0 0.0
2017-Sep-25 21:48N 47°49' W 004°23'0 0.0
2017-Sep-25 21:30N 47°49' W 004°23'0 0.0
2017-Sep-25 20:59N 47°49' W 004°23'0 0.0
2017-Sep-25 20:30N 47°49' W 004°23'0 0.0
2017-Sep-25 19:55N 47°49' W 004°23'0 0.0
2017-Sep-25 19:27N 47°49' W 004°23'0 0.0
2017-Sep-25 19:00N 47°49' W 004°23'0 0.0
2017-Sep-25 18:26N 47°49' W 004°23'0 0.0
2017-Sep-25 16:48N 47°49' W 004°23'0 0.0
2017-Sep-25 15:48N 47°49' W 004°23'0 0.0
2017-Sep-25 13:48N 47°49' W 004°23'0 0.1
2017-Sep-25 11:48N 47°49' W 004°23'13 8.2
2017-Sep-25 10:12N 47°52' W 004°42'2 8.6
2017-Sep-25 09:59N 47°53' W 004°45'4 8.5
2017-Sep-25 09:30N 47°54' W 004°50'4 8.6
2017-Sep-25 09:00N 47°55' W 004°56'5 9.2
2017-Sep-25 08:29N 47°57' W 005°03'  
2017-Sep-22 01:57N 47°48' W 004°23'0 0.2
2017-Sep-22 00:00N 47°49' W 004°23'0 0.0
2017-Sep-21 21:48N 47°49' W 004°23'0 0.0
2017-Sep-21 19:48N 47°49' W 004°23'0 0.0
2017-Sep-21 16:48N 47°49' W 004°23'0 0.0
2017-Sep-21 14:48N 47°49' W 004°23'10 2.4
2017-Sep-21 10:48N 47°53' W 004°36'1 0.6
2017-Sep-21 09:01N 47°54' W 004°36'0 3.3
2017-Sep-21 08:54N 47°54' W 004°37'1 3.4
2017-Sep-21 08:28N 47°55' W 004°38'1 2.9
2017-Sep-21 07:58N 47°56' W 004°37'2 3.4
2017-Sep-21 07:27N 47°57' W 004°35'1 3.2
2017-Sep-21 06:58N 47°56' W 004°36'1 2.6
2017-Sep-21 06:29N 47°56' W 004°38'1 2.9
2017-Sep-21 06:00N 47°57' W 004°37'2 2.7
2017-Sep-21 05:13N 47°55' W 004°38'1 3.3
2017-Sep-21 04:58N 47°56' W 004°39'2 3.2
2017-Sep-21 04:26N 47°57' W 004°38'1 2.6
2017-Sep-21 04:00N 47°57' W 004°36'2 2.8
2017-Sep-21 03:28N 47°56' W 004°37'1 2.7
2017-Sep-21 03:00N 47°56' W 004°39'2 2.6
2017-Sep-21 02:25N 47°57' W 004°37'1 2.4
2017-Sep-21 02:00N 47°57' W 004°37'2 3.6
2017-Sep-21 01:30N 47°55' W 004°37'1 3.0
2017-Sep-21 01:00N 47°53' W 004°37'2 2.1
2017-Sep-20 23:51N 47°55' W 004°40'1 2.7
2017-Sep-20 23:25N 47°56' W 004°39'1 2.8
2017-Sep-20 23:00N 47°57' W 004°39'1 2.6
2017-Sep-20 22:30N 47°58' W 004°40'3 6.3
2017-Sep-20 22:00N 48°00' W 004°43'3 6.2
2017-Sep-20 21:30N 48°02' W 004°47'4 7.5
2017-Sep-20 21:00N 48°04' W 004°52'4 7.1
2017-Sep-20 20:30N 48°06' W 004°56'3 7.0
2017-Sep-20 20:00N 48°07' W 005°01'13 0.9
2017-Sep-20 04:52N 48°19' W 005°10'0 0.4
2017-Sep-20 04:05N 48°19' W 005°09'0 3.3
2017-Sep-20 03:59N 48°19' W 005°09'0 0.2
2017-Sep-20 03:29N 48°19' W 005°09'1 2.7
2017-Sep-20 03:00N 48°19' W 005°11'2 3.1
2017-Sep-20 02:27N 48°19' W 005°08'1 1.6
2017-Sep-20 01:48N 48°19' W 005°10'1 1.8
2017-Sep-20 01:28N 48°19' W 005°11'2 3.3
2017-Sep-20 00:54N 48°19' W 005°08'1 2.4
2017-Sep-20 00:28N 48°19' W 005°09'1 1.6
2017-Sep-19 23:52N 48°18' W 005°10'1 2.6
2017-Sep-19 23:21N 48°19' W 005°08'1 2.5
2017-Sep-19 23:00N 48°19' W 005°07'1 2.7
2017-Sep-19 22:28N 48°18' W 005°05'1 2.4
2017-Sep-19 22:00N 48°17' W 005°06'2 3.2
2017-Sep-19 21:30N 48°17' W 005°08'1 2.2
2017-Sep-19 21:00N 48°17' W 005°06'2 3.1
2017-Sep-19 20:29N 48°18' W 005°04'1 2.6
2017-Sep-19 20:00N 48°17' W 005°06'3 0.3
2017-Sep-19 10:45N 48°19' W 005°09'0 0.4
2017-Sep-19 10:11N 48°19' W 005°10'1 2.9
2017-Sep-19 09:58N 48°19' W 005°09'0 0.2
2017-Sep-19 09:29N 48°19' W 005°09'1 1.1
2017-Sep-19 09:00N 48°19' W 005°10'3 1.5
2017-Sep-19 06:50N 48°22' W 005°10'1 1.1
2017-Sep-19 05:48N 48°23' W 005°12'2 2.3
2017-Sep-19 04:58N 48°21' W 005°10'2 4.4
2017-Sep-19 04:30N 48°19' W 005°08'1 2.4
2017-Sep-19 03:58N 48°19' W 005°07'1 3.3
2017-Sep-19 03:30N 48°18' W 005°04'1 2.6
2017-Sep-19 03:00N 48°17' W 005°06'1 1.5
2017-Sep-19 02:29N 48°18' W 005°07'2 3.2
2017-Sep-19 02:00N 48°17' W 005°05'1 2.0
2017-Sep-19 01:30N 48°18' W 005°05'2 2.8
2017-Sep-19 00:57N 48°19' W 005°07'1 3.1
2017-Sep-19 00:30N 48°19' W 005°09'1 1.4
2017-Sep-18 23:50N 48°19' W 005°10'1 3.4
2017-Sep-18 23:30N 48°19' W 005°09'0 0.1
2017-Sep-18 23:00N 48°19' W 005°09'0 0.4
2017-Sep-18 22:16N 48°19' W 005°09'1 3.3
2017-Sep-18 22:00N 48°19' W 005°08'0 0.3
2017-Sep-18 20:44N 48°19' W 005°08'0 1.4
2017-Sep-18 20:30N 48°19' W 005°08'1 1.4
2017-Sep-18 19:48N 48°19' W 005°10'1 3.3
2017-Sep-18 19:30N 48°19' W 005°08'1 1.5
2017-Sep-18 19:00N 48°18' W 005°08'3 2.6
2017-Sep-18 17:48N 48°17' W 005°12'4 0.9
2017-Sep-18 13:48N 48°14' W 005°16'3 2.5
2017-Sep-18 12:31N 48°16' W 005°12'1 4.4
2017-Sep-18 12:24N 48°16' W 005°12'2 4.3
2017-Sep-18 11:53N 48°14' W 005°12'2 2.8
2017-Sep-18 11:19N 48°13' W 005°10'1 3.1
2017-Sep-18 10:59N 48°13' W 005°09'3 5.8
2017-Sep-18 10:29N 48°13' W 005°04'1 3.1
2017-Sep-18 10:00N 48°12' W 005°04'2 3.4
2017-Sep-18 09:30N 48°11' W 005°01'2 3.3
2017-Sep-18 09:01N 48°12' W 004°59'2 0.8
2017-Sep-18 06:50N 48°10' W 005°01'1 3.0
2017-Sep-18 06:30N 48°09' W 005°01'1 2.5
2017-Sep-18 06:00N 48°08' W 004°59'4 8.7
2017-Sep-18 05:30N 48°06' W 004°53'4 8.4
2017-Sep-18 05:00N 48°04' W 004°49'3 6.8
2017-Sep-18 04:30N 48°02' W 004°45'4 8.2
2017-Sep-18 04:00N 47°59' W 004°39'4 7.9
2017-Sep-18 03:30N 47°57' W 004°35'6 8.2
2017-Sep-18 02:48N 47°52' W 004°30'13 4.4
2017-Sep-17 23:48N 47°50' W 004°10'0 0.0
2017-Sep-17 22:48N 47°50' W 004°10'0 0.0
2017-Sep-17 13:48N 47°50' W 004°10'0 0.0
2017-Sep-17 07:48N 47°50' W 004°10'0 0.0
2017-Sep-17 03:48N 47°50' W 004°10'0 0.0
2017-Sep-17 00:48N 47°50' W 004°10'0 0.0
2017-Sep-16 22:48N 47°50' W 004°10'0 0.0
2017-Sep-16 07:48N 47°50' W 004°10'  

Dump ship's entire track history